createdAt,value
2018-08-13T00:00:24.819Z,9.93
2018-08-13T00:03:28.248Z,10.10
2018-08-13T00:06:04.026Z,9.97
2018-08-13T00:08:33.491Z,11.33
2018-08-13T00:11:03.511Z,10.77
2018-08-13T00:14:23.277Z,12.03
2018-08-13T00:16:52.595Z,12.10
2018-08-13T00:19:22.113Z,11.37
2018-08-13T00:21:52.226Z,9.90
2018-08-13T00:24:21.407Z,9.13
2018-08-13T00:26:52.211Z,9.30
2018-08-13T00:29:21.237Z,8.60
2018-08-13T00:31:50.765Z,8.97
2018-08-13T00:34:19.918Z,8.73
2018-08-13T00:36:49.367Z,9.30
2018-08-13T00:39:18.460Z,7.87
2018-08-13T00:41:48.092Z,7.90
2018-08-13T00:44:30.469Z,7.67
2018-08-13T00:50:25.841Z,7.80
2018-08-13T00:52:57.048Z,8.67
2018-08-13T00:55:27.060Z,10.17
2018-08-13T00:58:30.303Z,11.37
2018-08-13T01:01:01.565Z,11.17
2018-08-13T01:03:31.772Z,10.50
2018-08-13T01:06:01.243Z,10.30
2018-08-13T01:09:36.406Z,11.93
2018-08-13T01:12:06.953Z,11.57
2018-08-13T01:14:36.799Z,12.50
2018-08-13T01:17:40.876Z,12.50
2018-08-13T01:20:12.753Z,11.43
2018-08-13T01:26:06.252Z,15.50
2018-08-13T01:28:36.888Z,15.10
2018-08-13T01:34:33.596Z,14.60
2018-08-13T01:37:13.276Z,11.77
2018-08-13T01:39:52.314Z,18.17
2018-08-13T01:42:27.587Z,22.17
2018-08-13T01:44:57.030Z,17.83
2018-08-13T01:47:41.365Z,16.40
2018-08-13T01:50:42.627Z,14.90
2018-08-13T01:53:18.650Z,12.90
2018-08-13T01:55:52.591Z,16.87
2018-08-13T02:01:43.299Z,26.70
2018-08-13T02:04:12.700Z,24.83
2018-08-13T02:06:41.873Z,19.77
2018-08-13T02:09:12.343Z,20.27
2018-08-13T02:11:51.470Z,19.70
2018-08-13T02:17:37.641Z,20.13
2018-08-13T02:25:53.294Z,27.00
2018-08-13T02:28:22.563Z,25.57
2018-08-13T02:30:51.765Z,31.30
2018-08-13T02:33:21.031Z,28.67
2018-08-13T02:35:50.127Z,23.67
2018-08-13T02:38:19.338Z,26.00
2018-08-13T02:40:48.438Z,24.37
2018-08-13T02:43:17.769Z,22.50
2018-08-13T02:45:46.854Z,18.97
2018-08-13T02:48:16.044Z,27.27
2018-08-13T02:50:46.132Z,34.47
2018-08-13T02:53:15.621Z,37.17
2018-08-13T02:55:44.736Z,59.93
2018-08-13T02:58:14.643Z,43.67
2018-08-13T03:00:43.772Z,48.80
2018-08-13T03:03:13.185Z,64.13
2018-08-13T03:05:42.374Z,58.03
2018-08-13T03:08:12.044Z,39.20
2018-08-13T03:10:41.213Z,42.07
2018-08-13T03:13:10.421Z,33.67
2018-08-13T03:15:39.470Z,41.90
2018-08-13T03:18:08.904Z,31.93
2018-08-13T03:20:37.992Z,30.73
2018-08-13T03:23:08.087Z,34.57
2018-08-13T03:28:50.223Z,30.43
2018-08-13T03:31:19.266Z,25.50
2018-08-13T03:33:48.263Z,38.80
2018-08-13T03:36:17.446Z,28.27
2018-08-13T03:38:46.793Z,22.70
2018-08-13T03:41:16.155Z,36.07
2018-08-13T03:43:45.256Z,25.90
2018-08-13T03:46:14.777Z,24.17
2018-08-13T03:48:43.918Z,29.27
2018-08-13T03:51:13.274Z,30.67
2018-08-13T03:53:42.414Z,57.00
2018-08-13T03:56:11.788Z,89.03
2018-08-13T03:58:41.161Z,73.60
2018-08-13T04:01:10.179Z,87.53
2018-08-13T04:03:39.178Z,31.00
2018-08-13T04:06:08.277Z,78.17
2018-08-13T04:08:37.415Z,30.40
2018-08-13T04:11:06.770Z,14.13
2018-08-13T04:13:35.825Z,51.53
2018-08-13T04:16:04.993Z,73.13
2018-08-13T04:18:33.962Z,20.80
2018-08-13T04:21:03.168Z,56.97
2018-08-13T04:23:32.330Z,66.37
2018-08-13T04:26:02.024Z,31.23
2018-08-13T04:29:13.468Z,33.00
2018-08-13T04:32:22.309Z,55.47
2018-08-13T04:38:02.880Z,76.33
2018-08-13T04:40:32.000Z,59.37
2018-08-13T04:43:01.076Z,63.70
2018-08-13T04:45:30.184Z,45.33
2018-08-13T04:47:59.245Z,51.77
2018-08-13T04:50:28.321Z,43.63
2018-08-13T04:52:57.277Z,71.73
2018-08-13T04:55:26.766Z,87.03
2018-08-13T05:08:00.991Z,54.17
2018-08-13T05:10:30.306Z,58.47
2018-08-13T05:12:59.400Z,44.17
2018-08-13T05:15:28.771Z,39.57
2018-08-13T05:17:57.859Z,61.43
2018-08-13T05:20:26.838Z,57.27
2018-08-13T05:22:55.915Z,72.17
2018-08-13T05:25:25.017Z,76.13
2018-08-13T05:27:54.501Z,48.87
2018-08-13T05:30:23.756Z,59.13
2018-08-13T05:32:52.641Z,60.97
2018-08-13T05:35:21.695Z,71.40
2018-08-13T05:37:50.768Z,57.30
2018-08-13T05:40:20.741Z,41.60
2018-08-13T05:42:49.912Z,66.00
2018-08-13T05:45:20.060Z,54.60
2018-08-13T05:47:49.100Z,63.17
2018-08-13T05:50:20.220Z,83.60
2018-08-13T05:52:49.611Z,49.77
2018-08-13T05:55:18.891Z,34.83
2018-08-13T05:57:47.997Z,68.63
2018-08-13T06:00:18.557Z,33.13
2018-08-13T06:02:47.835Z,63.50
2018-08-13T06:05:18.356Z,21.27
2018-08-13T06:07:47.598Z,25.30
2018-08-13T06:10:18.527Z,31.37
2018-08-13T06:12:47.667Z,26.77
2018-08-13T06:15:18.772Z,22.87
2018-08-13T06:17:47.932Z,13.30
2018-08-13T06:20:19.773Z,14.43
2018-08-13T06:22:48.820Z,9.53
2018-08-13T06:25:20.653Z,12.93
2018-08-13T06:27:49.699Z,11.33
2018-08-13T06:30:22.007Z,10.80
2018-08-13T06:32:51.199Z,9.73
2018-08-13T06:35:21.507Z,13.07
2018-08-13T06:37:50.583Z,12.40
2018-08-13T06:40:22.236Z,11.63
2018-08-13T06:42:51.363Z,11.33
2018-08-13T06:45:27.851Z,11.20
2018-08-13T06:47:57.851Z,9.70
2018-08-13T06:50:27.240Z,9.43
2018-08-13T06:52:56.342Z,9.70
2018-08-13T06:55:25.550Z,10.07
2018-08-13T06:58:01.598Z,9.53
2018-08-13T07:00:38.294Z,10.50
2018-08-13T07:03:07.549Z,8.27
2018-08-13T07:05:36.684Z,10.17
2018-08-13T07:08:06.148Z,10.23
2018-08-13T07:10:35.563Z,10.90
2018-08-13T07:13:04.870Z,11.13
2018-08-13T07:15:35.036Z,10.20
2018-08-13T07:18:04.290Z,10.90
2018-08-13T07:20:33.326Z,11.20
2018-08-13T07:23:02.486Z,12.37
2018-08-13T07:25:31.557Z,11.27
2018-08-13T07:28:00.787Z,10.27
2018-08-13T07:30:30.039Z,12.03
2018-08-13T07:32:59.210Z,10.63
2018-08-13T07:35:28.321Z,10.17
2018-08-13T07:37:57.545Z,9.57
2018-08-13T07:40:27.084Z,8.80
2018-08-13T07:42:56.071Z,8.43
2018-08-13T07:45:25.120Z,8.87
2018-08-13T07:47:54.247Z,8.67
2018-08-13T07:50:23.406Z,8.40
2018-08-13T07:52:55.426Z,7.00
2018-08-13T07:55:24.651Z,6.37
2018-08-13T07:58:00.587Z,6.40
2018-08-13T08:00:29.892Z,5.43
2018-08-13T08:02:59.081Z,6.00
2018-08-13T08:05:28.344Z,5.67
2018-08-13T08:08:14.410Z,5.10
2018-08-13T08:10:43.518Z,5.60
2018-08-13T08:13:13.229Z,6.07
2018-08-13T08:15:42.624Z,5.97
2018-08-13T08:18:17.632Z,6.23
2018-08-13T08:20:59.296Z,5.50
2018-08-13T08:23:28.542Z,5.40
2018-08-13T08:25:57.664Z,5.63
2018-08-13T08:28:26.752Z,5.33
2018-08-13T08:30:55.895Z,5.60
2018-08-13T08:33:27.371Z,5.43
2018-08-13T08:35:56.503Z,5.67
2018-08-13T08:38:25.622Z,5.20
2018-08-13T08:40:54.817Z,4.77
2018-08-13T08:43:23.814Z,5.13
2018-08-13T08:45:52.832Z,4.50
2018-08-13T08:48:22.033Z,4.40
2018-08-13T08:50:51.084Z,4.63
2018-08-13T08:53:20.273Z,4.33
2018-08-13T08:55:49.319Z,4.13
2018-08-13T09:01:11.062Z,4.40
2018-08-13T09:03:40.158Z,4.03
2018-08-13T09:06:10.024Z,3.80
2018-08-13T09:08:39.227Z,4.20
2018-08-13T09:11:08.390Z,4.47
2018-08-13T09:13:37.499Z,4.50
2018-08-13T09:16:06.748Z,4.30
2018-08-13T09:18:59.206Z,4.70
2018-08-13T09:21:31.664Z,4.50
2018-08-13T09:24:12.274Z,4.20
2018-08-13T09:26:52.229Z,4.50
2018-08-13T09:29:32.803Z,6.70
2018-08-13T09:32:30.609Z,4.60
2018-08-13T09:35:23.248Z,4.07
2018-08-13T09:37:52.491Z,4.73
2018-08-13T09:40:23.768Z,4.57
2018-08-13T09:42:52.822Z,4.60
2018-08-13T09:45:22.879Z,4.57
2018-08-13T09:48:02.002Z,5.07
2018-08-13T09:50:41.942Z,4.93
2018-08-13T09:53:17.033Z,4.63
2018-08-13T09:58:58.519Z,3.93
2018-08-13T10:01:36.367Z,5.10
2018-08-13T10:04:05.619Z,5.20
2018-08-13T10:06:50.006Z,4.80
2018-08-13T10:12:20.867Z,4.10
2018-08-13T10:15:05.803Z,4.00
2018-08-13T10:17:34.831Z,4.17
2018-08-13T10:20:26.540Z,4.53
2018-08-13T10:23:02.300Z,4.40
2018-08-13T10:25:45.805Z,4.23
2018-08-13T10:28:15.636Z,3.73
2018-08-13T10:31:13.060Z,3.67
2018-08-13T10:33:55.578Z,4.77
2018-08-13T10:36:33.468Z,3.77
2018-08-13T10:39:09.974Z,4.00
2018-08-13T10:41:50.161Z,3.80
2018-08-13T10:44:22.872Z,3.33
2018-08-13T10:46:52.937Z,4.10
2018-08-13T10:49:22.708Z,3.40
2018-08-13T10:52:12.679Z,3.70
2018-08-13T10:54:53.296Z,3.00
2018-08-13T10:57:26.093Z,3.67
2018-08-13T11:00:05.734Z,2.97
2018-08-13T11:02:35.268Z,3.70
2018-08-13T11:05:20.601Z,3.83
2018-08-13T11:07:56.418Z,4.03
2018-08-13T11:10:30.918Z,4.07
2018-08-13T11:13:00.551Z,3.73
2018-08-13T11:15:29.613Z,3.57
2018-08-13T11:17:58.652Z,3.50
2018-08-13T11:20:27.782Z,3.50
2018-08-13T11:22:56.864Z,3.33
2018-08-13T11:25:26.030Z,3.00
2018-08-13T11:27:55.140Z,3.33
2018-08-13T11:30:24.186Z,3.23
2018-08-13T11:32:53.365Z,3.40
2018-08-13T11:35:23.974Z,3.60
2018-08-13T11:37:52.983Z,3.37
2018-08-13T11:40:24.350Z,3.53
2018-08-13T11:42:54.334Z,2.93
2018-08-13T11:45:23.397Z,3.37
2018-08-13T11:47:52.452Z,3.53
2018-08-13T11:50:24.618Z,3.10
2018-08-13T11:52:53.706Z,3.43
2018-08-13T11:55:23.943Z,3.27
2018-08-13T11:57:53.210Z,3.00
2018-08-13T12:00:25.470Z,3.30
2018-08-13T12:02:54.451Z,3.30
2018-08-13T12:05:23.884Z,3.10
2018-08-13T12:07:52.940Z,2.97
2018-08-13T12:10:23.810Z,3.03
2018-08-13T12:12:52.904Z,2.73
2018-08-13T12:15:23.347Z,3.80
2018-08-13T12:17:52.774Z,3.83
2018-08-13T12:20:23.616Z,3.40
2018-08-13T12:22:52.603Z,3.47
2018-08-13T12:25:24.928Z,2.93
2018-08-13T12:27:54.323Z,3.70
2018-08-13T12:30:23.282Z,3.63
2018-08-13T12:32:53.032Z,3.50
2018-08-13T12:35:23.408Z,3.43
2018-08-13T12:37:52.721Z,3.93
2018-08-13T12:40:23.947Z,3.40
2018-08-13T12:42:53.191Z,3.50
2018-08-13T12:45:22.432Z,3.67
2018-08-13T12:47:51.769Z,3.23
2018-08-13T12:50:25.830Z,3.40
2018-08-13T12:52:55.360Z,3.67
2018-08-13T12:55:24.472Z,3.60
2018-08-13T12:57:53.650Z,3.13
2018-08-13T13:00:23.082Z,3.50
2018-08-13T13:02:52.058Z,3.63
2018-08-13T13:05:22.566Z,3.50
2018-08-13T13:07:51.726Z,3.70
2018-08-13T13:10:22.850Z,3.50
2018-08-13T13:12:52.500Z,3.30
2018-08-13T13:15:21.834Z,3.37
2018-08-13T13:20:39.211Z,3.63
2018-08-13T13:23:08.249Z,3.60
2018-08-13T13:25:37.522Z,3.67
2018-08-13T13:28:08.787Z,3.60
2018-08-13T13:30:37.902Z,3.50
2018-08-13T13:33:07.185Z,3.73
2018-08-13T13:35:36.367Z,4.00
2018-08-13T13:38:06.363Z,3.77
2018-08-13T13:40:35.559Z,3.43
2018-08-13T13:43:04.922Z,3.80
2018-08-13T13:45:40.575Z,4.50
2018-08-13T13:48:09.695Z,4.07
2018-08-13T13:50:38.778Z,4.47
2018-08-13T13:53:08.261Z,4.17
2018-08-13T13:55:37.465Z,5.00
2018-08-13T13:58:07.168Z,4.67
2018-08-13T14:00:36.501Z,6.77
2018-08-13T14:03:05.680Z,5.47
2018-08-13T14:05:34.832Z,6.90
2018-08-13T14:08:03.949Z,4.60
2018-08-13T14:10:33.120Z,5.30
2018-08-13T14:13:02.258Z,4.80
2018-08-13T14:15:31.391Z,4.90
2018-08-13T14:18:00.576Z,4.50
2018-08-13T14:20:30.602Z,4.20
2018-08-13T14:22:59.743Z,4.50
2018-08-13T14:25:28.871Z,4.10
2018-08-13T14:27:58.015Z,4.10
2018-08-13T14:30:28.345Z,4.20
2018-08-13T14:32:57.476Z,4.63
2018-08-13T14:35:26.657Z,5.03
2018-08-13T14:37:55.844Z,4.60
2018-08-13T14:43:17.940Z,4.37
2018-08-13T14:45:47.123Z,4.17
2018-08-13T14:48:16.836Z,4.30
2018-08-13T14:50:46.042Z,3.63
2018-08-13T14:53:16.795Z,5.20
2018-08-13T14:55:45.898Z,9.70
2018-08-13T14:58:16.408Z,6.37
2018-08-13T15:00:45.445Z,8.40
2018-08-13T15:03:15.083Z,9.43
2018-08-13T15:05:44.507Z,9.10
2018-08-13T15:08:13.889Z,12.67
2018-08-13T15:10:43.515Z,10.07
2018-08-13T15:13:13.383Z,10.93
2018-08-13T15:15:43.605Z,8.43
2018-08-13T15:18:23.874Z,7.87
2018-08-13T15:20:53.901Z,7.77
2018-08-13T15:23:24.067Z,7.90
2018-08-13T15:25:53.239Z,7.37
2018-08-13T15:28:22.471Z,12.37
2018-08-13T15:33:45.124Z,8.17
2018-08-13T15:36:15.978Z,9.40
2018-08-13T15:38:45.159Z,8.20
2018-08-13T15:41:14.860Z,6.30
2018-08-13T15:43:44.161Z,7.13
2018-08-13T15:46:13.787Z,4.13
2018-08-13T15:54:28.072Z,4.60
2018-08-13T15:56:57.026Z,4.73
2018-08-13T15:59:26.249Z,4.70
2018-08-13T16:07:40.655Z,4.53
2018-08-13T16:10:11.506Z,4.63
2018-08-13T16:12:40.935Z,4.40
2018-08-13T16:15:12.766Z,4.73
2018-08-13T16:17:44.755Z,5.20
2018-08-13T16:20:22.815Z,6.93
2018-08-13T16:22:52.099Z,7.40
2018-08-13T16:25:21.336Z,7.13
2018-08-13T16:27:52.419Z,7.50
2018-08-13T16:30:23.727Z,7.67
2018-08-13T16:32:52.903Z,7.43
2018-08-13T16:35:23.975Z,6.13
2018-08-13T16:37:53.218Z,6.53
2018-08-13T16:40:23.105Z,6.50
2018-08-13T16:42:53.274Z,6.43
2018-08-13T16:45:36.114Z,7.13
2018-08-13T16:48:05.794Z,7.10
2018-08-13T16:50:35.198Z,6.87
2018-08-13T16:53:04.531Z,6.70
2018-08-13T16:55:34.287Z,5.27
2018-08-13T16:58:03.938Z,5.90
2018-08-13T17:00:33.556Z,5.17
2018-08-13T17:03:03.508Z,5.63
2018-08-13T17:05:34.461Z,6.13
2018-08-13T17:08:03.794Z,5.67
2018-08-13T17:10:32.915Z,6.57
2018-08-13T17:13:02.326Z,5.87
2018-08-13T17:15:32.737Z,6.53
2018-08-13T17:18:02.898Z,6.30
2018-08-13T17:20:35.444Z,5.60
2018-08-13T17:23:17.722Z,5.97
2018-08-13T17:25:46.799Z,4.93
2018-08-13T17:28:16.381Z,4.87
2018-08-13T17:30:45.495Z,4.67
2018-08-13T17:33:15.220Z,5.17
2018-08-13T17:35:44.268Z,5.37
2018-08-13T17:38:14.069Z,5.40
2018-08-13T17:40:43.890Z,5.30
2018-08-13T17:43:13.696Z,5.03
2018-08-13T17:45:42.853Z,4.83
2018-08-13T17:48:12.478Z,5.57
2018-08-13T17:50:41.717Z,5.87
2018-08-13T17:53:11.835Z,5.60
2018-08-13T17:55:41.109Z,5.80
2018-08-13T17:58:10.442Z,6.57
2018-08-13T18:00:39.751Z,6.87
2018-08-13T18:03:08.988Z,7.77
2018-08-13T18:05:38.048Z,7.70
2018-08-13T18:08:08.252Z,11.17
2018-08-13T18:10:38.494Z,8.83
2018-08-13T18:13:09.320Z,8.27
2018-08-13T18:15:38.547Z,9.10
2018-08-13T18:18:08.179Z,11.57
2018-08-13T18:20:37.298Z,11.23
2018-08-13T18:23:06.496Z,11.33
2018-08-13T18:25:35.855Z,9.53
2018-08-13T18:28:04.988Z,9.90
2018-08-13T18:30:34.325Z,9.80
2018-08-13T18:33:03.370Z,9.17
2018-08-13T18:35:32.426Z,9.90
2018-08-13T18:38:01.597Z,9.70
2018-08-13T18:40:32.921Z,9.10
2018-08-13T18:43:01.992Z,9.63
2018-08-13T18:45:31.624Z,9.97
2018-08-13T18:48:01.360Z,8.80
2018-08-13T18:50:30.636Z,9.27
2018-08-13T18:52:59.752Z,11.10
2018-08-13T18:55:28.915Z,9.83
2018-08-13T18:58:04.144Z,10.53
2018-08-13T19:00:38.836Z,10.87
2018-08-13T19:03:08.406Z,10.93
2018-08-13T19:05:37.809Z,10.53
2018-08-13T19:08:07.300Z,11.07
2018-08-13T19:10:47.464Z,12.23
2018-08-13T19:13:18.252Z,11.87
2018-08-13T19:15:47.392Z,12.17
2018-08-13T19:18:20.840Z,11.90
2018-08-13T19:20:49.980Z,10.67
2018-08-13T19:23:19.139Z,9.77
2018-08-13T19:25:49.216Z,10.10
2018-08-13T19:28:19.084Z,11.03
2018-08-13T19:30:48.154Z,10.27
2018-08-13T19:33:17.199Z,10.20
2018-08-13T19:35:46.767Z,11.17
2018-08-13T19:38:36.360Z,11.27
2018-08-13T19:41:19.539Z,12.57
2018-08-13T19:43:53.679Z,12.50
2018-08-13T19:46:23.729Z,12.87
2018-08-13T19:48:52.720Z,11.73
2018-08-13T19:51:21.942Z,14.73
2018-08-13T19:54:17.096Z,13.57
2018-08-13T19:57:02.582Z,12.73
2018-08-13T19:59:54.982Z,11.17
2018-08-13T20:02:25.024Z,11.77
2018-08-13T20:04:55.299Z,10.57
2018-08-13T20:07:46.750Z,10.97
2018-08-13T20:10:40.499Z,9.83
2018-08-13T20:13:09.888Z,11.43
2018-08-13T20:15:48.851Z,11.07
2018-08-13T20:18:54.325Z,11.77
2018-08-13T20:35:12.830Z,13.90
2018-08-13T20:38:01.774Z,12.00
2018-08-13T20:40:51.326Z,13.23
2018-08-13T20:46:16.815Z,13.23
2018-08-13T20:48:51.213Z,12.23
2018-08-13T20:54:15.335Z,12.63
2018-08-13T20:56:56.472Z,12.57
2018-08-13T20:59:27.497Z,13.03
2018-08-13T21:01:56.838Z,12.43
2018-08-13T21:04:28.868Z,12.73
2018-08-13T21:06:58.612Z,13.43
2018-08-13T21:09:36.655Z,12.50
2018-08-13T21:12:07.276Z,13.97
2018-08-13T21:14:37.535Z,13.60
2018-08-13T21:17:07.083Z,14.17
2018-08-13T21:19:58.243Z,14.67
2018-08-13T21:22:41.857Z,13.93
2018-08-13T21:25:23.302Z,15.23
2018-08-13T21:28:05.758Z,13.53
2018-08-13T21:30:45.861Z,14.23
2018-08-13T21:33:18.095Z,15.13
2018-08-13T21:35:59.269Z,13.93
2018-08-13T21:38:33.457Z,13.37
2018-08-13T21:41:12.727Z,14.60
2018-08-13T21:43:49.320Z,14.47
2018-08-13T21:46:19.491Z,15.17
2018-08-13T21:48:59.648Z,16.40
2018-08-13T21:51:41.280Z,14.17
2018-08-13T21:54:28.307Z,13.40
2018-08-13T21:57:03.699Z,13.60
2018-08-13T21:59:46.068Z,14.33
2018-08-13T22:02:19.571Z,14.40
2018-08-13T22:05:14.021Z,12.77
2018-08-13T22:07:43.633Z,12.10
2018-08-13T22:10:29.247Z,13.50
2018-08-13T22:13:00.243Z,12.67
2018-08-13T22:15:31.013Z,13.50
2018-08-13T22:18:10.833Z,12.73
2018-08-13T22:20:40.123Z,12.77
2018-08-13T22:23:09.702Z,12.80
2018-08-13T22:25:41.732Z,14.47
2018-08-13T22:28:22.097Z,14.83
2018-08-13T22:31:02.143Z,13.17
2018-08-13T22:33:31.435Z,13.20
2018-08-13T22:36:01.715Z,14.45
2018-08-13T22:38:30.986Z,13.53
2018-08-13T22:43:52.685Z,12.90
2018-08-13T22:46:22.645Z,13.27
2018-08-13T22:48:52.021Z,13.90
2018-08-13T22:51:21.171Z,13.47
2018-08-13T22:53:50.471Z,14.57
2018-08-13T22:56:20.996Z,15.03
2018-08-13T22:58:57.148Z,14.97
2018-08-13T23:01:30.401Z,14.83
2018-08-13T23:04:26.766Z,14.80
2018-08-13T23:06:56.486Z,14.70
2018-08-13T23:09:35.174Z,14.37
2018-08-13T23:12:06.638Z,13.80
2018-08-13T23:14:43.334Z,15.27
2018-08-13T23:17:16.413Z,15.33
2018-08-13T23:19:45.843Z,14.77
2018-08-13T23:22:33.017Z,14.60
2018-08-13T23:25:02.406Z,16.50
2018-08-13T23:27:31.576Z,17.70
2018-08-13T23:30:00.702Z,18.77
2018-08-13T23:32:30.038Z,17.40
2018-08-13T23:35:12.359Z,18.13
2018-08-13T23:38:00.709Z,18.03
2018-08-13T23:40:32.225Z,18.27
2018-08-13T23:43:01.667Z,18.33
2018-08-13T23:45:32.287Z,16.87
2018-08-13T23:48:01.653Z,15.63
2018-08-13T23:50:38.293Z,16.63
2018-08-13T23:53:08.056Z,17.33
2018-08-13T23:55:39.359Z,15.93
2018-08-13T23:58:10.539Z,12.27
